createdAt,value
2019-03-25T00:00:39.889Z,9.90
2019-03-25T00:03:10.301Z,6.00
2019-03-25T00:05:41.140Z,6.57
2019-03-25T00:08:11.454Z,6.63
2019-03-25T00:10:41.725Z,8.27
2019-03-25T00:13:12.285Z,4.83
2019-03-25T00:15:42.753Z,9.87
2019-03-25T00:18:13.152Z,9.10
2019-03-25T00:20:43.493Z,8.30
2019-03-25T00:23:13.704Z,10.10
2019-03-25T00:25:44.317Z,7.63
2019-03-25T00:28:14.656Z,8.87
2019-03-25T00:30:44.857Z,9.03
2019-03-25T00:33:15.070Z,6.27
2019-03-25T00:35:45.385Z,5.47
2019-03-25T00:38:15.861Z,8.73
2019-03-25T00:40:46.321Z,7.97
2019-03-25T00:43:16.600Z,5.33
2019-03-25T00:45:46.983Z,9.30
2019-03-25T00:48:17.289Z,7.13
2019-03-25T00:50:47.659Z,7.73
2019-03-25T00:53:18.054Z,7.70
2019-03-25T00:55:48.265Z,5.43
2019-03-25T00:58:18.740Z,5.67
2019-03-25T01:00:49.127Z,5.70
2019-03-25T01:03:19.401Z,6.47
2019-03-25T01:05:49.609Z,8.27
2019-03-25T01:08:20.005Z,5.10
2019-03-25T01:10:50.362Z,7.10
2019-03-25T01:13:20.757Z,5.33
2019-03-25T01:15:51.232Z,6.83
2019-03-25T01:18:21.630Z,8.30
2019-03-25T01:20:51.944Z,8.77
2019-03-25T01:23:22.216Z,9.93
2019-03-25T01:25:52.601Z,5.23
2019-03-25T01:28:23.072Z,10.03
2019-03-25T01:30:53.430Z,6.10
2019-03-25T01:33:23.717Z,6.83
2019-03-25T01:35:54.009Z,8.30
2019-03-25T01:38:24.377Z,5.37
2019-03-25T01:40:54.765Z,3.07
2019-03-25T01:43:24.971Z,6.63
2019-03-25T01:45:55.265Z,5.57
2019-03-25T01:48:25.733Z,7.77
2019-03-25T01:50:56.007Z,7.10
2019-03-25T01:53:26.476Z,5.97
2019-03-25T01:55:56.680Z,6.37
2019-03-25T01:58:27.061Z,5.23
2019-03-25T02:00:57.601Z,6.70
2019-03-25T02:03:27.913Z,8.43
2019-03-25T02:05:58.257Z,7.73
2019-03-25T02:08:28.397Z,10.03
2019-03-25T02:10:58.684Z,6.47
2019-03-25T02:13:28.944Z,8.93
2019-03-25T02:15:59.430Z,6.37
2019-03-25T02:18:29.724Z,10.33
2019-03-25T02:21:00.014Z,8.10
2019-03-25T02:23:30.283Z,5.17
2019-03-25T02:26:00.725Z,7.60
2019-03-25T02:28:31.147Z,7.73
2019-03-25T02:31:01.478Z,5.73
2019-03-25T02:33:31.761Z,9.07
2019-03-25T02:36:02.052Z,8.57
2019-03-25T02:38:32.482Z,4.63
2019-03-25T02:41:02.962Z,9.97
2019-03-25T02:43:33.447Z,6.23
2019-03-25T02:46:04.008Z,4.60
2019-03-25T02:48:34.454Z,8.23
2019-03-25T02:51:05.155Z,7.53
2019-03-25T02:53:35.345Z,4.03
2019-03-25T02:56:05.730Z,5.83
2019-03-25T02:58:36.171Z,7.23
2019-03-25T03:01:06.468Z,5.70
2019-03-25T03:03:36.748Z,8.73
2019-03-25T03:06:07.169Z,7.33
2019-03-25T03:08:37.430Z,7.50
2019-03-25T03:11:07.789Z,7.83
2019-03-25T03:13:38.256Z,7.00
2019-03-25T03:16:08.697Z,4.90
2019-03-25T03:18:38.900Z,7.20
2019-03-25T03:21:09.345Z,6.93
2019-03-25T03:23:39.633Z,9.00
2019-03-25T03:26:09.917Z,12.40
2019-03-25T03:28:40.139Z,7.47
2019-03-25T03:31:10.793Z,4.90
2019-03-25T03:33:41.266Z,8.00
2019-03-25T03:36:11.725Z,10.67
2019-03-25T03:38:42.110Z,9.83
2019-03-25T03:41:12.380Z,9.90
2019-03-25T03:43:42.598Z,5.47
2019-03-25T03:46:13.117Z,8.50
2019-03-25T03:48:43.606Z,5.87
2019-03-25T03:51:14.168Z,10.73
2019-03-25T03:53:44.754Z,9.47
2019-03-25T03:56:15.396Z,7.83
2019-03-25T03:58:46.302Z,8.17
2019-03-25T04:01:16.554Z,8.97
2019-03-25T04:03:46.829Z,8.27
2019-03-25T04:06:17.150Z,8.47
2019-03-25T04:08:47.359Z,7.20
2019-03-25T04:11:17.641Z,6.13
2019-03-25T04:13:47.932Z,9.37
2019-03-25T04:16:18.303Z,6.23
2019-03-25T04:18:48.640Z,10.73
2019-03-25T04:21:18.917Z,8.00
2019-03-25T04:23:49.302Z,9.07
2019-03-25T04:26:28.641Z,4.10
2019-03-25T04:28:51.498Z,7.93
2019-03-25T04:31:21.710Z,7.93
2019-03-25T04:33:51.918Z,9.07
2019-03-25T04:36:22.203Z,7.87
2019-03-25T04:38:52.569Z,6.30
2019-03-25T04:41:22.785Z,9.60
2019-03-25T04:43:54.506Z,9.37
2019-03-25T04:46:24.885Z,9.97
2019-03-25T04:48:55.165Z,10.43
2019-03-25T04:51:25.522Z,4.93
2019-03-25T04:53:55.798Z,4.37
2019-03-25T04:56:26.091Z,10.57
2019-03-25T04:58:56.363Z,7.33
2019-03-25T05:01:26.654Z,9.60
2019-03-25T05:03:57.056Z,15.93
2019-03-25T05:06:27.313Z,9.67
2019-03-25T05:08:57.617Z,8.30
2019-03-25T05:11:30.776Z,13.73
2019-03-25T05:13:59.934Z,9.60
2019-03-25T05:16:30.156Z,9.80
2019-03-25T05:19:00.368Z,11.63
2019-03-25T05:21:30.874Z,8.67
2019-03-25T05:24:01.367Z,7.20
2019-03-25T05:26:31.677Z,9.03
2019-03-25T05:29:01.897Z,7.43
2019-03-25T05:31:32.375Z,8.87
2019-03-25T05:34:02.674Z,9.80
2019-03-25T05:36:33.045Z,12.73
2019-03-25T05:39:05.419Z,10.03
2019-03-25T05:41:35.789Z,9.53
2019-03-25T05:44:06.014Z,9.20
2019-03-25T05:46:36.402Z,14.87
2019-03-25T05:49:06.606Z,7.50
2019-03-25T05:51:36.990Z,9.17
2019-03-25T05:54:07.265Z,9.73
2019-03-25T05:56:37.487Z,9.07
2019-03-25T05:59:07.868Z,9.57
2019-03-25T06:01:38.347Z,7.87
2019-03-25T06:04:08.653Z,4.37
2019-03-25T06:06:38.853Z,10.10
2019-03-25T06:09:09.248Z,10.47
2019-03-25T06:11:39.459Z,8.47
2019-03-25T06:14:09.749Z,7.73
2019-03-25T06:16:39.873Z,8.13
2019-03-25T06:19:10.089Z,9.93
2019-03-25T06:21:40.541Z,5.93
2019-03-25T06:24:10.749Z,7.90
2019-03-25T06:26:41.033Z,9.33
2019-03-25T06:29:11.260Z,6.90
2019-03-25T06:31:41.820Z,9.83
2019-03-25T06:34:12.208Z,8.60
2019-03-25T06:36:42.421Z,4.80
2019-03-25T06:39:12.770Z,5.20
2019-03-25T06:41:43.053Z,5.10
2019-03-25T06:44:13.176Z,5.83
2019-03-25T06:46:43.798Z,5.13
2019-03-25T06:49:14.184Z,6.93
2019-03-25T06:51:45.324Z,7.73
2019-03-25T06:54:15.725Z,4.87
2019-03-25T06:56:46.115Z,6.73
2019-03-25T06:59:16.389Z,5.60
2019-03-25T07:01:46.973Z,7.27
2019-03-25T07:04:17.289Z,5.53
2019-03-25T07:06:47.696Z,3.00
2019-03-25T07:09:18.770Z,4.40
2019-03-25T07:11:49.925Z,4.47
2019-03-25T07:14:20.289Z,5.70
2019-03-25T07:16:50.500Z,5.90
2019-03-25T07:19:20.708Z,6.93
2019-03-25T07:21:51.022Z,6.30
2019-03-25T07:24:21.397Z,5.47
2019-03-25T07:26:51.709Z,5.33
2019-03-25T07:29:22.000Z,7.10
2019-03-25T07:31:52.228Z,9.37
2019-03-25T07:34:22.713Z,6.70
2019-03-25T07:36:53.181Z,4.60
2019-03-25T07:39:23.509Z,5.17
2019-03-25T07:41:53.844Z,7.33
2019-03-25T07:44:24.340Z,6.03
2019-03-25T07:46:54.831Z,8.27
2019-03-25T07:49:25.300Z,7.93
2019-03-25T07:51:55.511Z,7.53
2019-03-25T07:54:25.896Z,8.77
2019-03-25T07:56:56.187Z,6.87
2019-03-25T07:59:26.702Z,7.47
2019-03-25T08:01:57.287Z,5.80
2019-03-25T08:04:27.776Z,6.77
2019-03-25T08:06:58.445Z,5.83
2019-03-25T08:09:28.977Z,7.73
2019-03-25T08:11:59.446Z,3.40
2019-03-25T08:14:29.804Z,9.07
2019-03-25T08:17:00.578Z,7.70
2019-03-25T08:19:31.025Z,5.40
2019-03-25T08:22:01.409Z,7.03
2019-03-25T08:24:31.893Z,8.50
2019-03-25T08:27:02.272Z,6.77
2019-03-25T08:29:32.556Z,4.80
2019-03-25T08:32:03.199Z,9.20
2019-03-25T08:34:33.853Z,4.10
2019-03-25T08:37:04.588Z,7.40
2019-03-25T08:39:35.044Z,3.97
2019-03-25T08:42:05.530Z,6.30
2019-03-25T08:44:35.993Z,6.57
2019-03-25T08:47:06.510Z,4.40
2019-03-25T08:49:37.185Z,6.90
2019-03-25T08:52:07.827Z,6.37
2019-03-25T08:54:38.374Z,7.23
2019-03-25T08:57:08.956Z,4.87
2019-03-25T08:59:39.454Z,6.30
2019-03-25T09:02:09.966Z,9.97
2019-03-25T09:04:40.525Z,4.73
2019-03-25T09:07:10.921Z,3.03
2019-03-25T09:09:41.269Z,4.07
2019-03-25T09:12:11.705Z,5.23
2019-03-25T09:14:42.177Z,4.70
2019-03-25T09:17:12.468Z,3.43
2019-03-25T09:19:42.941Z,5.67
2019-03-25T09:22:13.562Z,4.90
2019-03-25T09:24:44.063Z,5.70
2019-03-25T09:27:14.514Z,2.43
2019-03-25T09:29:44.717Z,1.83
2019-03-25T09:32:15.005Z,1.80
2019-03-25T09:34:45.139Z,4.00
2019-03-25T09:37:15.431Z,4.63
2019-03-25T09:39:46.036Z,3.90
2019-03-25T09:42:16.512Z,3.53
2019-03-25T09:44:46.801Z,5.97
2019-03-25T09:47:17.116Z,5.33
2019-03-25T09:49:47.673Z,4.47
2019-03-25T09:52:18.153Z,5.97
2019-03-25T09:54:48.553Z,4.23
2019-03-25T09:57:19.629Z,3.40
2019-03-25T09:59:50.006Z,2.63
2019-03-25T10:02:20.284Z,4.17
2019-03-25T10:04:50.796Z,3.07
2019-03-25T10:07:22.785Z,6.30
2019-03-25T10:09:53.220Z,3.63
2019-03-25T10:12:23.637Z,3.83
2019-03-25T10:14:53.905Z,3.00
2019-03-25T10:17:24.325Z,3.23
2019-03-25T10:19:54.605Z,4.27
2019-03-25T10:22:24.918Z,5.03
2019-03-25T10:24:55.294Z,3.40
2019-03-25T10:27:25.723Z,3.17
2019-03-25T10:29:55.981Z,4.20
2019-03-25T10:32:26.541Z,3.13
2019-03-25T10:34:56.936Z,3.40
2019-03-25T10:37:27.225Z,2.17
2019-03-25T10:39:57.797Z,2.30
2019-03-25T10:42:28.154Z,2.07
2019-03-25T10:44:58.481Z,1.57
2019-03-25T10:47:28.758Z,1.57
2019-03-25T10:49:59.066Z,3.17
2019-03-25T10:52:29.461Z,3.63
2019-03-25T10:55:00.062Z,1.90
2019-03-25T10:57:30.930Z,1.63
2019-03-25T11:00:01.348Z,4.67
2019-03-25T11:02:31.997Z,1.43
2019-03-25T11:05:02.921Z,1.80
2019-03-25T11:07:33.623Z,0.77
2019-03-25T11:10:06.998Z,2.40
2019-03-25T11:12:37.605Z,1.33
2019-03-25T11:15:09.935Z,2.80
2019-03-25T11:17:40.593Z,1.70
2019-03-25T11:20:11.243Z,0.60
2019-03-25T11:22:41.732Z,1.70
2019-03-25T11:25:12.996Z,2.63
2019-03-25T11:27:43.558Z,2.27
2019-03-25T11:30:14.672Z,0.77
2019-03-25T11:32:45.085Z,1.70
2019-03-25T11:35:16.001Z,1.97
2019-03-25T11:37:46.397Z,1.27
2019-03-25T11:40:17.153Z,3.70
2019-03-25T11:42:47.769Z,3.00
2019-03-25T11:45:18.818Z,1.67
2019-03-25T11:47:49.653Z,2.13
2019-03-25T11:50:20.253Z,2.77
2019-03-25T11:52:50.745Z,1.87
2019-03-25T11:55:21.454Z,1.90
2019-03-25T11:57:51.933Z,1.73
2019-03-25T12:00:23.423Z,1.67
2019-03-25T12:02:53.850Z,1.43
2019-03-25T12:05:24.453Z,6.27
2019-03-25T12:07:54.929Z,3.60
2019-03-25T12:10:25.465Z,1.50
2019-03-25T12:12:56.261Z,1.00
2019-03-25T12:15:27.021Z,2.83
2019-03-25T12:17:57.613Z,2.33
2019-03-25T12:20:28.169Z,0.97
2019-03-25T12:22:58.649Z,1.30
2019-03-25T12:25:28.969Z,2.20
2019-03-25T12:27:59.537Z,1.10
2019-03-25T12:30:30.012Z,2.83
2019-03-25T12:33:04.122Z,0.97
2019-03-25T12:35:32.998Z,2.77
2019-03-25T12:38:03.577Z,2.47
2019-03-25T12:40:50.473Z,1.10
2019-03-25T12:43:38.901Z,1.60
2019-03-25T12:46:09.315Z,1.20
2019-03-25T12:48:39.909Z,0.57
2019-03-25T12:51:10.452Z,1.17
2019-03-25T12:53:40.748Z,1.83
2019-03-25T12:56:11.056Z,2.57
2019-03-25T12:58:41.815Z,1.17
2019-03-25T13:01:12.400Z,0.40
2019-03-25T13:03:42.813Z,0.50
2019-03-25T13:06:13.348Z,0.83
2019-03-25T13:08:43.884Z,1.57
2019-03-25T13:11:14.469Z,2.33
2019-03-25T13:13:45.089Z,0.57
2019-03-25T13:16:15.689Z,0.43
2019-03-25T13:18:46.205Z,0.83
2019-03-25T13:21:16.681Z,1.00
2019-03-25T13:23:47.037Z,0.90
2019-03-25T13:26:17.517Z,1.00
2019-03-25T13:28:48.022Z,0.33
2019-03-25T13:31:18.621Z,1.87
2019-03-25T13:33:49.121Z,1.57
2019-03-25T13:36:19.796Z,0.80
2019-03-25T13:38:50.206Z,1.57
2019-03-25T13:41:20.801Z,1.00
2019-03-25T13:43:51.397Z,0.60
2019-03-25T13:46:21.900Z,1.77
2019-03-25T13:48:52.382Z,1.60
2019-03-25T13:51:22.677Z,1.23
2019-03-25T13:53:53.174Z,1.20
2019-03-25T13:56:23.650Z,3.03
2019-03-25T13:58:54.228Z,1.30
2019-03-25T14:01:24.764Z,1.83
2019-03-25T14:03:55.240Z,0.83
2019-03-25T14:06:25.934Z,0.67
2019-03-25T14:08:56.229Z,0.70
2019-03-25T14:11:26.812Z,0.80
2019-03-25T14:13:57.193Z,0.40
2019-03-25T14:16:27.754Z,0.60
2019-03-25T14:18:58.237Z,0.90
2019-03-25T14:21:28.706Z,2.00
2019-03-25T14:23:59.063Z,0.57
2019-03-25T14:26:29.560Z,0.63
2019-03-25T14:28:59.768Z,3.00
2019-03-25T14:31:30.096Z,2.07
2019-03-25T14:34:00.582Z,1.10
2019-03-25T14:36:31.268Z,0.90
2019-03-25T14:39:01.683Z,1.03
2019-03-25T14:41:32.081Z,0.63
2019-03-25T14:44:02.908Z,0.77
2019-03-25T14:46:33.129Z,0.53
2019-03-25T14:49:03.562Z,0.60
2019-03-25T14:51:33.901Z,1.40
2019-03-25T14:54:04.417Z,0.63
2019-03-25T14:56:34.812Z,1.00
2019-03-25T14:59:05.243Z,0.60
2019-03-25T15:01:35.537Z,1.03
2019-03-25T15:04:05.987Z,1.67
2019-03-25T15:06:36.612Z,1.13
2019-03-25T15:09:07.649Z,1.03
2019-03-25T15:11:38.039Z,1.87
2019-03-25T15:14:08.614Z,0.93
2019-03-25T15:16:39.105Z,3.07
2019-03-25T15:19:09.769Z,0.37
2019-03-25T15:21:40.476Z,0.97
2019-03-25T15:24:11.141Z,0.90
2019-03-25T15:26:41.713Z,0.30
2019-03-25T15:29:12.262Z,1.90
2019-03-25T15:31:42.914Z,0.93
2019-03-25T15:34:13.465Z,0.87
2019-03-25T15:36:43.971Z,0.67
2019-03-25T15:39:14.601Z,0.40
2019-03-25T15:41:47.196Z,0.93
2019-03-25T15:44:17.240Z,2.00
2019-03-25T15:46:55.721Z,1.13
2019-03-25T15:49:20.029Z,1.33
2019-03-25T15:51:50.337Z,0.60
2019-03-25T15:54:20.745Z,0.77
2019-03-25T15:56:51.063Z,0.70
2019-03-25T15:59:21.426Z,0.73
2019-03-25T16:01:52.076Z,1.07
2019-03-25T16:04:22.505Z,1.97
2019-03-25T16:06:53.101Z,0.97
2019-03-25T16:09:23.609Z,0.57
2019-03-25T16:11:54.013Z,1.87
2019-03-25T16:14:24.509Z,3.90
2019-03-25T16:16:55.228Z,0.50
2019-03-25T16:19:25.824Z,1.07
2019-03-25T16:21:56.365Z,2.93
2019-03-25T16:24:26.757Z,1.13
2019-03-25T16:26:57.201Z,2.87
2019-03-25T16:29:27.724Z,2.07
2019-03-25T16:31:58.253Z,1.17
2019-03-25T16:34:28.973Z,1.47
2019-03-25T16:36:59.181Z,0.83
2019-03-25T16:39:29.679Z,3.93
2019-03-25T16:42:00.240Z,4.00
2019-03-25T16:44:30.557Z,1.57
2019-03-25T16:47:00.866Z,2.23
2019-03-25T16:49:31.239Z,2.10
2019-03-25T16:52:01.509Z,2.17
2019-03-25T16:54:31.916Z,1.40
2019-03-25T16:57:02.313Z,1.40
2019-03-25T16:59:32.529Z,1.40
2019-03-25T17:02:02.834Z,0.97
2019-03-25T17:04:33.185Z,1.47
2019-03-25T17:07:03.482Z,0.50
2019-03-25T17:09:33.929Z,1.63
2019-03-25T17:12:04.465Z,3.07
2019-03-25T17:14:35.003Z,1.37
2019-03-25T17:17:05.554Z,1.00
2019-03-25T17:19:35.849Z,3.20
2019-03-25T17:22:06.438Z,1.77
2019-03-25T17:24:36.802Z,1.63
2019-03-25T17:27:07.289Z,3.60
2019-03-25T17:29:37.769Z,2.10
2019-03-25T17:32:08.182Z,3.97
2019-03-25T17:34:38.689Z,2.53
2019-03-25T17:37:09.213Z,1.30
2019-03-25T17:39:39.509Z,2.17
2019-03-25T17:42:09.973Z,1.33
2019-03-25T17:44:40.385Z,1.87
2019-03-25T17:47:11.093Z,2.23
2019-03-25T17:49:41.510Z,1.20
2019-03-25T17:52:11.881Z,1.60
2019-03-25T17:58:00.785Z,1.27
2019-03-25T18:00:54.369Z,3.10
2019-03-25T18:03:24.941Z,1.63
2019-03-25T18:05:55.333Z,5.80
2019-03-25T18:08:26.106Z,1.93
2019-03-25T18:10:56.525Z,4.57
2019-03-25T18:13:27.159Z,2.43
2019-03-25T18:19:17.239Z,3.03
2019-03-25T18:21:47.915Z,3.23
2019-03-25T18:24:18.303Z,1.50
2019-03-25T18:26:48.776Z,3.83
2019-03-25T18:29:19.373Z,4.73
2019-03-25T18:31:49.843Z,2.70
2019-03-25T18:34:20.431Z,3.67
2019-03-25T18:36:50.997Z,0.83
2019-03-25T18:39:21.501Z,5.03
2019-03-25T18:41:52.060Z,4.73
2019-03-25T18:44:22.360Z,4.40
2019-03-25T18:46:52.787Z,2.73
2019-03-25T18:49:23.225Z,5.90
2019-03-25T18:51:53.750Z,3.10
2019-03-25T18:54:24.492Z,3.40
2019-03-25T18:56:55.085Z,2.30
2019-03-25T18:59:25.665Z,7.70
2019-03-25T19:01:56.411Z,4.77
2019-03-25T19:04:27.376Z,2.80
2019-03-25T19:06:58.312Z,5.20
2019-03-25T19:09:29.025Z,5.03
2019-03-25T19:11:59.428Z,4.40
2019-03-25T19:14:30.034Z,2.77
2019-03-25T19:17:00.621Z,1.97
2019-03-25T19:19:31.240Z,6.33
2019-03-25T19:22:02.081Z,6.13
2019-03-25T19:24:32.371Z,3.53
2019-03-25T19:27:02.839Z,7.17
2019-03-25T19:29:33.374Z,3.27
2019-03-25T19:32:06.807Z,4.47
2019-03-25T19:34:36.061Z,7.33
2019-03-25T19:37:06.545Z,7.20
2019-03-25T19:39:36.832Z,5.17
2019-03-25T19:42:07.469Z,6.83
2019-03-25T19:44:37.928Z,8.20
2019-03-25T19:47:08.414Z,2.70
2019-03-25T19:49:38.785Z,2.30
2019-03-25T19:52:09.567Z,6.83
2019-03-25T19:54:40.074Z,3.93
2019-03-25T19:57:10.434Z,7.10
2019-03-25T19:59:40.794Z,4.23
2019-03-25T20:02:18.859Z,7.93
2019-03-25T20:04:43.402Z,3.00
2019-03-25T20:07:13.849Z,2.23
2019-03-25T20:09:44.293Z,4.30
2019-03-25T20:12:14.773Z,5.63
2019-03-25T20:14:45.147Z,3.20
2019-03-25T20:17:15.603Z,2.70
2019-03-25T20:19:45.885Z,5.10
2019-03-25T20:22:16.428Z,5.57
2019-03-25T20:24:46.901Z,5.13
2019-03-25T20:27:17.584Z,2.90
2019-03-25T20:29:47.925Z,2.20
2019-03-25T20:32:31.011Z,2.73
2019-03-25T20:34:50.495Z,2.47
2019-03-25T20:37:20.794Z,4.43
2019-03-25T20:39:51.254Z,6.33
2019-03-25T20:42:21.667Z,6.43
2019-03-25T20:44:51.837Z,2.40
2019-03-25T20:47:22.306Z,4.20
2019-03-25T20:49:52.618Z,4.90
2019-03-25T20:52:24.498Z,2.63
2019-03-25T20:54:54.823Z,3.13
2019-03-25T20:57:25.109Z,4.10
2019-03-25T20:59:55.374Z,2.33
2019-03-25T21:02:26.020Z,3.77
2019-03-25T21:04:56.381Z,2.87
2019-03-25T21:07:26.607Z,2.47
2019-03-25T21:09:56.970Z,7.23
2019-03-25T21:12:27.377Z,5.60
2019-03-25T21:14:57.945Z,1.43
2019-03-25T21:17:28.373Z,2.47
2019-03-25T21:19:58.586Z,1.90
2019-03-25T21:22:28.836Z,2.63
2019-03-25T21:24:59.269Z,10.63
2019-03-25T21:27:29.644Z,1.53
2019-03-25T21:30:00.370Z,7.60
2019-03-25T21:32:30.840Z,1.40
2019-03-25T21:35:01.457Z,3.90
2019-03-25T21:37:31.921Z,5.37
2019-03-25T21:40:02.668Z,9.07
2019-03-25T21:42:33.220Z,8.20
2019-03-25T21:45:05.581Z,12.90
2019-03-25T21:47:36.006Z,11.30
2019-03-25T21:50:06.964Z,7.17
2019-03-25T21:52:37.656Z,4.73
2019-03-25T21:55:08.198Z,7.27
2019-03-25T21:57:38.755Z,5.50
2019-03-25T22:00:09.820Z,2.90
2019-03-25T22:02:40.229Z,3.40
2019-03-25T22:05:10.744Z,3.50
2019-03-25T22:07:41.035Z,1.87
2019-03-25T22:10:11.685Z,3.30
2019-03-25T22:12:42.182Z,5.63
2019-03-25T22:15:12.909Z,5.50
2019-03-25T22:17:43.267Z,2.17
2019-03-25T22:20:13.819Z,4.17
2019-03-25T22:22:44.180Z,1.73
2019-03-25T22:25:14.536Z,1.53
2019-03-25T22:27:44.802Z,4.30
2019-03-25T22:30:15.271Z,1.80
2019-03-25T22:32:45.604Z,2.03
2019-03-25T22:35:15.817Z,6.23
2019-03-25T22:37:46.099Z,3.97
2019-03-25T22:40:16.441Z,3.83
2019-03-25T22:42:46.721Z,2.73
2019-03-25T22:45:19.990Z,4.90
2019-03-25T22:47:50.205Z,3.37
2019-03-25T22:50:28.512Z,6.47
2019-03-25T22:52:58.878Z,0.97
2019-03-25T22:55:29.337Z,3.67
2019-03-25T22:57:59.737Z,2.40
2019-03-25T23:00:40.925Z,4.80
2019-03-25T23:03:11.270Z,3.43
2019-03-25T23:05:41.552Z,1.07
2019-03-25T23:08:11.957Z,4.53
2019-03-25T23:10:42.324Z,1.47
2019-03-25T23:13:12.591Z,1.40
2019-03-25T23:15:42.872Z,5.70
2019-03-25T23:18:13.089Z,1.30
2019-03-25T23:20:43.352Z,2.43
2019-03-25T23:23:14.333Z,4.27
2019-03-25T23:25:44.616Z,1.80
2019-03-25T23:28:14.989Z,1.70
2019-03-25T23:30:46.058Z,2.23
2019-03-25T23:33:16.277Z,5.17
2019-03-25T23:35:46.557Z,2.67
2019-03-25T23:38:16.834Z,2.67
2019-03-25T23:40:46.966Z,3.80
2019-03-25T23:43:17.245Z,1.67
2019-03-25T23:45:47.540Z,1.33
2019-03-25T23:48:17.753Z,5.87
2019-03-25T23:50:48.048Z,6.23
2019-03-25T23:53:18.333Z,1.77
2019-03-25T23:55:48.524Z,1.13
2019-03-25T23:58:18.842Z,1.53
